sensor_id;sensor_type;location;lat;lon;timestamp;temperature;humidity
12434;DHT22;6281;49.038;8.372;2023-03-01T00:02:05;0.60;99.90
12434;DHT22;6281;49.038;8.372;2023-03-01T00:04:32;0.60;99.90
12434;DHT22;6281;49.038;8.372;2023-03-01T00:07:01;0.50;99.90
12434;DHT22;6281;49.038;8.372;2023-03-01T00:09:29;0.40;99.90
12434;DHT22;6281;49.038;8.372;2023-03-01T00:11:56;0.60;99.90
12434;DHT22;6281;49.038;8.372;2023-03-01T00:14:23;0.60;99.90
12434;DHT22;6281;49.038;8.372;2023-03-01T00:16:50;0.60;99.90
12434;DHT22;6281;49.038;8.372;2023-03-01T00:19:18;0.40;99.90
12434;DHT22;6281;49.038;8.372;2023-03-01T00:22:17;0.50;99.90
12434;DHT22;6281;49.038;8.372;2023-03-01T00:24:45;0.70;99.90
12434;DHT22;6281;49.038;8.372;2023-03-01T00:27:12;0.60;99.90
12434;DHT22;6281;49.038;8.372;2023-03-01T00:29:39;0.30;99.90
12434;DHT22;6281;49.038;8.372;2023-03-01T00:32:06;0.50;99.90
12434;DHT22;6281;49.038;8.372;2023-03-01T00:34:33;0.60;99.90
12434;DHT22;6281;49.038;8.372;2023-03-01T00:37:00;0.60;99.90
12434;DHT22;6281;49.038;8.372;2023-03-01T00:39:31;0.70;99.90
12434;DHT22;6281;49.038;8.372;2023-03-01T00:42:00;0.40;99.90
12434;DHT22;6281;49.038;8.372;2023-03-01T00:44:27;0.30;99.90
12434;DHT22;6281;49.038;8.372;2023-03-01T00:46:54;0.40;99.90
12434;DHT22;6281;49.038;8.372;2023-03-01T00:49:21;0.50;99.90
12434;DHT22;6281;49.038;8.372;2023-03-01T00:51:49;0.60;99.90
12434;DHT22;6281;49.038;8.372;2023-03-01T00:54:19;0.50;99.90
12434;DHT22;6281;49.038;8.372;2023-03-01T00:56:46;0.60;99.90
12434;DHT22;6281;49.038;8.372;2023-03-01T00:59:14;0.50;99.90
12434;DHT22;6281;49.038;8.372;2023-03-01T01:01:41;0.30;99.90
12434;DHT22;6281;49.038;8.372;2023-03-01T01:04:09;0.40;99.90
12434;DHT22;6281;49.038;8.372;2023-03-01T01:06:38;0.20;99.90
12434;DHT22;6281;49.038;8.372;2023-03-01T01:09:09;0.30;99.90
12434;DHT22;6281;49.038;8.372;2023-03-01T01:11:43;0.20;99.90
12434;DHT22;6281;49.038;8.372;2023-03-01T01:14:10;0.20;99.90
12434;DHT22;6281;49.038;8.372;2023-03-01T01:16:39;0.10;99.90
12434;DHT22;6281;49.038;8.372;2023-03-01T01:19:06;0.00;99.90
12434;DHT22;6281;49.038;8.372;2023-03-01T01:21:33;0.00;99.90
12434;DHT22;6281;49.038;8.372;2023-03-01T01:24:02;0.20;99.90
12434;DHT22;6281;49.038;8.372;2023-03-01T01:26:31;0.30;99.90
12434;DHT22;6281;49.038;8.372;2023-03-01T01:28:58;0.40;99.90
12434;DHT22;6281;49.038;8.372;2023-03-01T01:31:26;0.40;99.90
12434;DHT22;6281;49.038;8.372;2023-03-01T01:33:56;0.30;99.90
12434;DHT22;6281;49.038;8.372;2023-03-01T01:36:23;0.40;99.90
12434;DHT22;6281;49.038;8.372;2023-03-01T01:38:50;0.50;99.90
12434;DHT22;6281;49.038;8.372;2023-03-01T01:41:18;0.50;99.90
12434;DHT22;6281;49.038;8.372;2023-03-01T01:43:47;0.50;99.90
12434;DHT22;6281;49.038;8.372;2023-03-01T01:46:21;0.50;99.90
12434;DHT22;6281;49.038;8.372;2023-03-01T01:48:55;0.40;99.90
12434;DHT22;6281;49.038;8.372;2023-03-01T01:51:27;0.40;99.90
12434;DHT22;6281;49.038;8.372;2023-03-01T01:53:58;0.20;99.90
12434;DHT22;6281;49.038;8.372;2023-03-01T01:56:27;0.30;99.90
12434;DHT22;6281;49.038;8.372;2023-03-01T01:58:55;0.40;99.90
12434;DHT22;6281;49.038;8.372;2023-03-01T02:01:22;-0.10;99.90
12434;DHT22;6281;49.038;8.372;2023-03-01T02:03:49;0.10;99.90
12434;DHT22;6281;49.038;8.372;2023-03-01T02:06:21;0.30;99.90
12434;DHT22;6281;49.038;8.372;2023-03-01T02:08:50;0.30;99.90
12434;DHT22;6281;49.038;8.372;2023-03-01T02:11:19;-0.20;99.90
12434;DHT22;6281;49.038;8.372;2023-03-01T02:13:48;0.10;99.90
12434;DHT22;6281;49.038;8.372;2023-03-01T02:16:16;0.20;99.90
12434;DHT22;6281;49.038;8.372;2023-03-01T02:18:44;0.10;99.90
12434;DHT22;6281;49.038;8.372;2023-03-01T02:21:35;-0.20;99.90
12434;DHT22;6281;49.038;8.372;2023-03-01T02:24:10;0.00;99.90
12434;DHT22;6281;49.038;8.372;2023-03-01T02:26:46;0.00;99.90
12434;DHT22;6281;49.038;8.372;2023-03-01T02:29:15;-0.10;99.90
12434;DHT22;6281;49.038;8.372;2023-03-01T02:31:42;0.00;99.90
12434;DHT22;6281;49.038;8.372;2023-03-01T02:34:12;0.20;99.90
12434;DHT22;6281;49.038;8.372;2023-03-01T02:36:43;0.10;99.90
12434;DHT22;6281;49.038;8.372;2023-03-01T02:39:14;0.10;99.90
12434;DHT22;6281;49.038;8.372;2023-03-01T02:41:46;0.10;99.90
12434;DHT22;6281;49.038;8.372;2023-03-01T02:44:15;-0.20;99.90
12434;DHT22;6281;49.038;8.372;2023-03-01T02:46:44;0.00;99.90
12434;DHT22;6281;49.038;8.372;2023-03-01T02:49:24;-0.10;99.90
12434;DHT22;6281;49.038;8.372;2023-03-01T02:52:01;-0.10;99.90
12434;DHT22;6281;49.038;8.372;2023-03-01T02:54:38;0.00;99.90
12434;DHT22;6281;49.038;8.372;2023-03-01T02:57:07;0.10;99.90
12434;DHT22;6281;49.038;8.372;2023-03-01T02:59:37;0.00;99.90
12434;DHT22;6281;49.038;8.372;2023-03-01T03:02:06;0.10;99.90
12434;DHT22;6281;49.038;8.372;2023-03-01T03:04:33;0.10;99.90
12434;DHT22;6281;49.038;8.372;2023-03-01T03:07:00;0.00;99.90
12434;DHT22;6281;49.038;8.372;2023-03-01T03:09:27;0.00;99.90
12434;DHT22;6281;49.038;8.372;2023-03-01T03:11:54;-0.10;99.90
12434;DHT22;6281;49.038;8.372;2023-03-01T03:14:21;-0.10;99.90
12434;DHT22;6281;49.038;8.372;2023-03-01T03:16:50;-0.10;99.90
12434;DHT22;6281;49.038;8.372;2023-03-01T03:19:17;-0.10;99.90
12434;DHT22;6281;49.038;8.372;2023-03-01T03:21:47;-0.10;99.90
12434;DHT22;6281;49.038;8.372;2023-03-01T03:24:14;0.00;99.90
12434;DHT22;6281;49.038;8.372;2023-03-01T03:26:42;-0.10;99.90
12434;DHT22;6281;49.038;8.372;2023-03-01T03:29:09;-0.10;99.90
12434;DHT22;6281;49.038;8.372;2023-03-01T03:31:36;0.00;99.90
12434;DHT22;6281;49.038;8.372;2023-03-01T03:34:04;0.00;99.90
12434;DHT22;6281;49.038;8.372;2023-03-01T03:36:31;-0.10;99.90
12434;DHT22;6281;49.038;8.372;2023-03-01T03:38:58;-0.10;99.90
12434;DHT22;6281;49.038;8.372;2023-03-01T03:41:25;0.00;99.90
12434;DHT22;6281;49.038;8.372;2023-03-01T03:43:52;-0.10;99.90
12434;DHT22;6281;49.038;8.372;2023-03-01T03:46:19;0.00;99.90
12434;DHT22;6281;49.038;8.372;2023-03-01T03:48:46;-0.10;99.90
12434;DHT22;6281;49.038;8.372;2023-03-01T03:51:16;-0.10;99.90
12434;DHT22;6281;49.038;8.372;2023-03-01T03:53:44;-0.30;99.90
12434;DHT22;6281;49.038;8.372;2023-03-01T03:56:11;-0.30;99.90
12434;DHT22;6281;49.038;8.372;2023-03-01T03:58:38;-0.40;99.90
12434;DHT22;6281;49.038;8.372;2023-03-01T04:01:06;-0.40;99.90
12434;DHT22;6281;49.038;8.372;2023-03-01T04:03:34;-0.40;99.90
12434;DHT22;6281;49.038;8.372;2023-03-01T04:06:02;-0.30;99.90
12434;DHT22;6281;49.038;8.372;2023-03-01T04:08:30;-0.40;99.90
12434;DHT22;6281;49.038;8.372;2023-03-01T04:11:00;-0.50;99.90
12434;DHT22;6281;49.038;8.372;2023-03-01T04:13:47;-0.50;99.90
12434;DHT22;6281;49.038;8.372;2023-03-01T04:16:14;-0.40;99.90
12434;DHT22;6281;49.038;8.372;2023-03-01T04:18:41;-0.40;99.90
12434;DHT22;6281;49.038;8.372;2023-03-01T04:21:08;-0.40;99.90
12434;DHT22;6281;49.038;8.372;2023-03-01T04:26:43;-0.50;99.90
12434;DHT22;6281;49.038;8.372;2023-03-01T04:29:10;-0.40;99.90
12434;DHT22;6281;49.038;8.372;2023-03-01T04:31:37;-0.40;99.90
12434;DHT22;6281;49.038;8.372;2023-03-01T04:34:04;-0.50;99.90
12434;DHT22;6281;49.038;8.372;2023-03-01T04:36:30;-0.50;99.90
12434;DHT22;6281;49.038;8.372;2023-03-01T04:38:57;-0.70;99.90
12434;DHT22;6281;49.038;8.372;2023-03-01T04:41:25;-0.90;99.90
12434;DHT22;6281;49.038;8.372;2023-03-01T04:43:53;-0.60;99.90
12434;DHT22;6281;49.038;8.372;2023-03-01T04:46:20;-0.90;99.90
12434;DHT22;6281;49.038;8.372;2023-03-01T04:48:48;-1.50;99.90
12434;DHT22;6281;49.038;8.372;2023-03-01T04:51:15;-1.70;99.90
12434;DHT22;6281;49.038;8.372;2023-03-01T04:53:42;-1.30;99.90
12434;DHT22;6281;49.038;8.372;2023-03-01T04:56:10;-0.90;99.90
12434;DHT22;6281;49.038;8.372;2023-03-01T04:58:37;-1.30;99.90
12434;DHT22;6281;49.038;8.372;2023-03-01T05:01:09;-1.40;99.90
12434;DHT22;6281;49.038;8.372;2023-03-01T05:03:41;-0.90;99.90
12434;DHT22;6281;49.038;8.372;2023-03-01T05:06:07;-1.30;99.90
12434;DHT22;6281;49.038;8.372;2023-03-01T05:08:34;-0.90;99.90
12434;DHT22;6281;49.038;8.372;2023-03-01T05:11:03;-0.70;99.90
12434;DHT22;6281;49.038;8.372;2023-03-01T05:13:31;-0.80;99.90
12434;DHT22;6281;49.038;8.372;2023-03-01T05:15:59;-0.70;99.90
12434;DHT22;6281;49.038;8.372;2023-03-01T05:18:31;-0.60;99.90
12434;DHT22;6281;49.038;8.372;2023-03-01T05:21:03;-0.60;99.90
12434;DHT22;6281;49.038;8.372;2023-03-01T05:23:44;-0.70;99.90
12434;DHT22;6281;49.038;8.372;2023-03-01T05:26:12;-0.70;99.90
12434;DHT22;6281;49.038;8.372;2023-03-01T05:28:40;-0.70;99.90
12434;DHT22;6281;49.038;8.372;2023-03-01T05:31:07;-0.70;99.90
12434;DHT22;6281;49.038;8.372;2023-03-01T05:33:37;-0.70;99.90
12434;DHT22;6281;49.038;8.372;2023-03-01T05:36:05;-0.90;99.90
12434;DHT22;6281;49.038;8.372;2023-03-01T05:38:32;-0.90;99.90
12434;DHT22;6281;49.038;8.372;2023-03-01T05:40:59;-1.00;99.90
12434;DHT22;6281;49.038;8.372;2023-03-01T05:43:30;-0.80;99.90
12434;DHT22;6281;49.038;8.372;2023-03-01T05:45:57;-0.90;99.90
12434;DHT22;6281;49.038;8.372;2023-03-01T05:48:25;-1.10;99.90
12434;DHT22;6281;49.038;8.372;2023-03-01T05:50:53;-1.30;99.90
12434;DHT22;6281;49.038;8.372;2023-03-01T05:53:20;-1.20;99.90
12434;DHT22;6281;49.038;8.372;2023-03-01T05:55:48;-1.30;99.90
12434;DHT22;6281;49.038;8.372;2023-03-01T05:58:16;-0.90;99.90
12434;DHT22;6281;49.038;8.372;2023-03-01T06:00:45;-1.00;99.90
12434;DHT22;6281;49.038;8.372;2023-03-01T06:03:14;-0.90;99.90
12434;DHT22;6281;49.038;8.372;2023-03-01T06:05:42;-1.10;99.90
12434;DHT22;6281;49.038;8.372;2023-03-01T06:08:11;-1.60;99.90
12434;DHT22;6281;49.038;8.372;2023-03-01T06:10:38;-1.40;99.90
12434;DHT22;6281;49.038;8.372;2023-03-01T06:13:06;-1.10;99.90
12434;DHT22;6281;49.038;8.372;2023-03-01T06:15:33;-1.00;99.90
12434;DHT22;6281;49.038;8.372;2023-03-01T06:17:59;-1.00;99.90
12434;DHT22;6281;49.038;8.372;2023-03-01T06:20:28;-0.90;99.90
12434;DHT22;6281;49.038;8.372;2023-03-01T06:23:06;-0.80;99.90
12434;DHT22;6281;49.038;8.372;2023-03-01T06:25:34;-0.80;99.90
12434;DHT22;6281;49.038;8.372;2023-03-01T06:28:01;-0.90;99.90
12434;DHT22;6281;49.038;8.372;2023-03-01T06:30:29;-0.90;99.90
12434;DHT22;6281;49.038;8.372;2023-03-01T06:32:57;-0.80;99.90
12434;DHT22;6281;49.038;8.372;2023-03-01T06:35:26;-0.70;99.90
12434;DHT22;6281;49.038;8.372;2023-03-01T06:37:55;-0.80;99.90
12434;DHT22;6281;49.038;8.372;2023-03-01T06:40:22;-0.80;99.90
12434;DHT22;6281;49.038;8.372;2023-03-01T06:42:51;-0.80;99.90
12434;DHT22;6281;49.038;8.372;2023-03-01T06:45:19;-0.80;99.90
12434;DHT22;6281;49.038;8.372;2023-03-01T06:47:47;-0.70;99.90
12434;DHT22;6281;49.038;8.372;2023-03-01T06:50:15;-0.60;99.90
12434;DHT22;6281;49.038;8.372;2023-03-01T06:52:42;-0.60;99.90
12434;DHT22;6281;49.038;8.372;2023-03-01T06:55:10;-0.50;99.90
12434;DHT22;6281;49.038;8.372;2023-03-01T06:57:37;-0.50;99.90
12434;DHT22;6281;49.038;8.372;2023-03-01T07:00:07;-0.50;99.90
12434;DHT22;6281;49.038;8.372;2023-03-01T07:02:33;-0.40;99.90
12434;DHT22;6281;49.038;8.372;2023-03-01T07:05:00;-0.30;99.90
12434;DHT22;6281;49.038;8.372;2023-03-01T07:07:27;-0.30;99.90
12434;DHT22;6281;49.038;8.372;2023-03-01T07:09:54;-0.50;99.90
12434;DHT22;6281;49.038;8.372;2023-03-01T07:12:21;-0.50;99.90
12434;DHT22;6281;49.038;8.372;2023-03-01T07:14:47;-0.30;99.90
12434;DHT22;6281;49.038;8.372;2023-03-01T07:17:16;-0.40;99.90
12434;DHT22;6281;49.038;8.372;2023-03-01T07:19:44;-0.40;99.90
12434;DHT22;6281;49.038;8.372;2023-03-01T07:22:32;-0.30;99.90
12434;DHT22;6281;49.038;8.372;2023-03-01T07:24:59;-0.30;99.90
12434;DHT22;6281;49.038;8.372;2023-03-01T07:27:26;-0.10;99.90
12434;DHT22;6281;49.038;8.372;2023-03-01T07:29:53;-0.10;99.90
12434;DHT22;6281;49.038;8.372;2023-03-01T07:32:21;0.00;99.90
12434;DHT22;6281;49.038;8.372;2023-03-01T07:34:48;0.10;99.90
12434;DHT22;6281;49.038;8.372;2023-03-01T07:37:15;0.00;99.90
12434;DHT22;6281;49.038;8.372;2023-03-01T07:39:42;0.00;99.90
12434;DHT22;6281;49.038;8.372;2023-03-01T07:42:09;0.30;99.90
12434;DHT22;6281;49.038;8.372;2023-03-01T07:44:36;0.30;99.90
12434;DHT22;6281;49.038;8.372;2023-03-01T07:47:03;0.50;99.90
12434;DHT22;6281;49.038;8.372;2023-03-01T07:49:32;0.50;99.90
12434;DHT22;6281;49.038;8.372;2023-03-01T07:51:59;0.60;99.90
12434;DHT22;6281;49.038;8.372;2023-03-01T07:54:26;0.60;99.90
12434;DHT22;6281;49.038;8.372;2023-03-01T07:56:52;0.70;99.90
12434;DHT22;6281;49.038;8.372;2023-03-01T07:59:20;0.80;99.90
12434;DHT22;6281;49.038;8.372;2023-03-01T08:01:49;0.70;99.90
12434;DHT22;6281;49.038;8.372;2023-03-01T08:04:16;0.80;99.90
12434;DHT22;6281;49.038;8.372;2023-03-01T08:06:45;0.90;99.90
12434;DHT22;6281;49.038;8.372;2023-03-01T08:09:12;1.00;99.90
12434;DHT22;6281;49.038;8.372;2023-03-01T08:11:39;1.10;99.90
12434;DHT22;6281;49.038;8.372;2023-03-01T08:14:06;1.10;99.90
12434;DHT22;6281;49.038;8.372;2023-03-01T08:16:33;1.00;99.90
12434;DHT22;6281;49.038;8.372;2023-03-01T08:19:04;1.10;99.90
12434;DHT22;6281;49.038;8.372;2023-03-01T08:21:52;1.20;99.90
12434;DHT22;6281;49.038;8.372;2023-03-01T08:24:18;1.20;99.90
12434;DHT22;6281;49.038;8.372;2023-03-01T08:26:45;1.20;99.90
12434;DHT22;6281;49.038;8.372;2023-03-01T08:29:12;1.40;99.90
12434;DHT22;6281;49.038;8.372;2023-03-01T08:31:39;1.50;99.90
12434;DHT22;6281;49.038;8.372;2023-03-01T08:34:09;1.60;99.90
12434;DHT22;6281;49.038;8.372;2023-03-01T08:36:38;1.50;99.90
12434;DHT22;6281;49.038;8.372;2023-03-01T08:39:08;1.60;99.90
12434;DHT22;6281;49.038;8.372;2023-03-01T08:41:35;1.70;99.90
12434;DHT22;6281;49.038;8.372;2023-03-01T08:44:03;2.10;99.90
12434;DHT22;6281;49.038;8.372;2023-03-01T08:46:32;2.20;99.90
12434;DHT22;6281;49.038;8.372;2023-03-01T08:48:59;1.90;99.90
12434;DHT22;6281;49.038;8.372;2023-03-01T08:51:26;2.00;99.90
12434;DHT22;6281;49.038;8.372;2023-03-01T08:57:18;2.30;99.90
12434;DHT22;6281;49.038;8.372;2023-03-01T08:59:45;2.50;99.90
12434;DHT22;6281;49.038;8.372;2023-03-01T09:02:13;2.60;99.90
12434;DHT22;6281;49.038;8.372;2023-03-01T09:04:40;2.90;99.90
12434;DHT22;6281;49.038;8.372;2023-03-01T09:07:08;3.30;99.90
12434;DHT22;6281;49.038;8.372;2023-03-01T09:09:35;3.50;99.90
12434;DHT22;6281;49.038;8.372;2023-03-01T09:12:03;4.20;99.90
12434;DHT22;6281;49.038;8.372;2023-03-01T09:14:32;4.50;99.90
12434;DHT22;6281;49.038;8.372;2023-03-01T09:16:59;3.90;99.90
12434;DHT22;6281;49.038;8.372;2023-03-01T09:19:28;3.80;99.90
12434;DHT22;6281;49.038;8.372;2023-03-01T09:21:55;5.40;99.90
12434;DHT22;6281;49.038;8.372;2023-03-01T09:24:24;5.80;99.90
12434;DHT22;6281;49.038;8.372;2023-03-01T09:26:53;7.50;99.90
12434;DHT22;6281;49.038;8.372;2023-03-01T09:29:21;6.50;99.90
12434;DHT22;6281;49.038;8.372;2023-03-01T09:31:49;7.00;99.90
12434;DHT22;6281;49.038;8.372;2023-03-01T09:34:25;6.60;99.90
12434;DHT22;6281;49.038;8.372;2023-03-01T09:36:52;6.70;99.90
12434;DHT22;6281;49.038;8.372;2023-03-01T09:39:19;7.00;99.90
12434;DHT22;6281;49.038;8.372;2023-03-01T09:41:50;4.90;99.90
12434;DHT22;6281;49.038;8.372;2023-03-01T09:44:29;4.90;99.90
12434;DHT22;6281;49.038;8.372;2023-03-01T09:46:59;5.20;99.90
12434;DHT22;6281;49.038;8.372;2023-03-01T09:49:28;4.40;99.90
12434;DHT22;6281;49.038;8.372;2023-03-01T09:51:59;4.00;99.90
12434;DHT22;6281;49.038;8.372;2023-03-01T09:54:27;4.20;99.90
12434;DHT22;6281;49.038;8.372;2023-03-01T09:57:05;4.40;99.90
12434;DHT22;6281;49.038;8.372;2023-03-01T09:59:43;4.80;99.90
12434;DHT22;6281;49.038;8.372;2023-03-01T10:02:26;4.60;99.90
12434;DHT22;6281;49.038;8.372;2023-03-01T10:04:56;4.50;99.90
12434;DHT22;6281;49.038;8.372;2023-03-01T10:07:30;4.40;99.90
12434;DHT22;6281;49.038;8.372;2023-03-01T10:09:59;4.90;99.90
12434;DHT22;6281;49.038;8.372;2023-03-01T10:12:33;4.90;99.90
12434;DHT22;6281;49.038;8.372;2023-03-01T10:15:04;5.70;99.90
12434;DHT22;6281;49.038;8.372;2023-03-01T10:17:37;5.30;99.90
12434;DHT22;6281;49.038;8.372;2023-03-01T10:20:17;5.00;99.90
12434;DHT22;6281;49.038;8.372;2023-03-01T10:22:45;5.80;99.90
12434;DHT22;6281;49.038;8.372;2023-03-01T10:25:18;5.10;99.90
12434;DHT22;6281;49.038;8.372;2023-03-01T10:27:51;5.10;99.90
12434;DHT22;6281;49.038;8.372;2023-03-01T10:30:20;5.20;99.90
12434;DHT22;6281;49.038;8.372;2023-03-01T10:32:51;5.10;99.90
12434;DHT22;6281;49.038;8.372;2023-03-01T10:35:47;5.10;99.90
12434;DHT22;6281;49.038;8.372;2023-03-01T10:45:22;5.10;99.90
12434;DHT22;6281;49.038;8.372;2023-03-01T10:48:11;5.60;99.90
12434;DHT22;6281;49.038;8.372;2023-03-01T10:50:49;5.80;99.90
12434;DHT22;6281;49.038;8.372;2023-03-01T10:53:26;5.90;99.90
12434;DHT22;6281;49.038;8.372;2023-03-01T10:56:00;6.30;99.90
12434;DHT22;6281;49.038;8.372;2023-03-01T10:58:28;6.30;99.90
12434;DHT22;6281;49.038;8.372;2023-03-01T11:00:56;6.70;99.90
12434;DHT22;6281;49.038;8.372;2023-03-01T11:03:26;9.60;92.70
12434;DHT22;6281;49.038;8.372;2023-03-01T11:05:59;10.40;69.10
12434;DHT22;6281;49.038;8.372;2023-03-01T11:08:40;12.20;59.10
12434;DHT22;6281;49.038;8.372;2023-03-01T11:11:30;12.70;54.20
12434;DHT22;6281;49.038;8.372;2023-03-01T11:13:59;13.00;51.10
12434;DHT22;6281;49.038;8.372;2023-03-01T11:16:30;13.30;52.90
12434;DHT22;6281;49.038;8.372;2023-03-01T11:19:16;11.60;52.20
12434;DHT22;6281;49.038;8.372;2023-03-01T11:21:51;12.10;52.10
12434;DHT22;6281;49.038;8.372;2023-03-01T11:24:19;13.00;50.40
12434;DHT22;6281;49.038;8.372;2023-03-01T11:26:52;12.60;49.40
12434;DHT22;6281;49.038;8.372;2023-03-01T11:29:27;12.80;52.80
12434;DHT22;6281;49.038;8.372;2023-03-01T11:31:58;12.50;49.50
12434;DHT22;6281;49.038;8.372;2023-03-01T11:34:38;14.30;45.90
12434;DHT22;6281;49.038;8.372;2023-03-01T11:37:14;13.20;45.20
12434;DHT22;6281;49.038;8.372;2023-03-01T11:39:47;11.90;49.00
12434;DHT22;6281;49.038;8.372;2023-03-01T11:42:19;12.60;46.90
12434;DHT22;6281;49.038;8.372;2023-03-01T11:44:52;12.50;48.80
12434;DHT22;6281;49.038;8.372;2023-03-01T11:47:32;14.70;44.70
12434;DHT22;6281;49.038;8.372;2023-03-01T11:50:25;13.50;45.70
12434;DHT22;6281;49.038;8.372;2023-03-01T11:53:01;13.50;44.50
12434;DHT22;6281;49.038;8.372;2023-03-01T11:55:43;14.60;42.00
12434;DHT22;6281;49.038;8.372;2023-03-01T11:58:27;13.70;44.80
12434;DHT22;6281;49.038;8.372;2023-03-01T12:01:07;14.40;42.90
12434;DHT22;6281;49.038;8.372;2023-03-01T12:03:47;14.30;43.30
12434;DHT22;6281;49.038;8.372;2023-03-01T12:06:29;14.00;42.50
12434;DHT22;6281;49.038;8.372;2023-03-01T12:09:11;14.90;42.10
12434;DHT22;6281;49.038;8.372;2023-03-01T12:11:52;15.10;40.50
12434;DHT22;6281;49.038;8.372;2023-03-01T12:14:34;14.90;41.90
12434;DHT22;6281;49.038;8.372;2023-03-01T12:17:32;14.40;42.40
12434;DHT22;6281;49.038;8.372;2023-03-01T12:20:18;13.30;44.00
12434;DHT22;6281;49.038;8.372;2023-03-01T12:25:41;12.90;47.70
12434;DHT22;6281;49.038;8.372;2023-03-01T12:28:24;12.30;48.90
12434;DHT22;6281;49.038;8.372;2023-03-01T12:31:14;10.90;51.40
12434;DHT22;6281;49.038;8.372;2023-03-01T12:33:49;12.00;51.20
12434;DHT22;6281;49.038;8.372;2023-03-01T12:36:47;10.90;53.50
12434;DHT22;6281;49.038;8.372;2023-03-01T12:39:29;11.30;55.10
12434;DHT22;6281;49.038;8.372;2023-03-01T12:42:04;10.60;55.10
12434;DHT22;6281;49.038;8.372;2023-03-01T12:44:59;10.60;54.10
12434;DHT22;6281;49.038;8.372;2023-03-01T12:47:41;10.60;56.40
12434;DHT22;6281;49.038;8.372;2023-03-01T12:50:17;12.10;53.30
12434;DHT22;6281;49.038;8.372;2023-03-01T12:52:49;10.70;54.90
12434;DHT22;6281;49.038;8.372;2023-03-01T12:55:26;10.70;57.50
12434;DHT22;6281;49.038;8.372;2023-03-01T12:58:02;11.00;54.30
12434;DHT22;6281;49.038;8.372;2023-03-01T13:00:35;11.60;53.20
12434;DHT22;6281;49.038;8.372;2023-03-01T13:03:14;11.20;56.50
12434;DHT22;6281;49.038;8.372;2023-03-01T13:05:53;10.90;56.00
12434;DHT22;6281;49.038;8.372;2023-03-01T13:08:27;10.40;57.80
12434;DHT22;6281;49.038;8.372;2023-03-01T13:11:00;11.10;57.90
12434;DHT22;6281;49.038;8.372;2023-03-01T13:13:28;11.30;57.20
12434;DHT22;6281;49.038;8.372;2023-03-01T13:15:56;11.30;58.70
12434;DHT22;6281;49.038;8.372;2023-03-01T13:18:33;11.30;55.20
12434;DHT22;6281;49.038;8.372;2023-03-01T13:21:03;11.30;55.60
12434;DHT22;6281;49.038;8.372;2023-03-01T13:23:34;12.00;55.80
12434;DHT22;6281;49.038;8.372;2023-03-01T13:26:15;12.00;54.10
12434;DHT22;6281;49.038;8.372;2023-03-01T13:28:59;11.70;53.40
12434;DHT22;6281;49.038;8.372;2023-03-01T13:32:00;11.30;53.90
12434;DHT22;6281;49.038;8.372;2023-03-01T13:35:02;11.50;54.00
12434;DHT22;6281;49.038;8.372;2023-03-01T13:37:36;12.40;52.50
12434;DHT22;6281;49.038;8.372;2023-03-01T13:43:29;11.30;53.10
12434;DHT22;6281;49.038;8.372;2023-03-01T13:45:57;12.50;51.80
12434;DHT22;6281;49.038;8.372;2023-03-01T13:48:27;12.20;52.50
12434;DHT22;6281;49.038;8.372;2023-03-01T13:50:57;12.10;50.60
12434;DHT22;6281;49.038;8.372;2023-03-01T13:53:27;12.10;50.60
12434;DHT22;6281;49.038;8.372;2023-03-01T13:55:58;11.80;51.90
12434;DHT22;6281;49.038;8.372;2023-03-01T13:58:29;12.10;52.20
12434;DHT22;6281;49.038;8.372;2023-03-01T14:00:58;12.20;51.20
12434;DHT22;6281;49.038;8.372;2023-03-01T14:03:25;11.30;52.50
12434;DHT22;6281;49.038;8.372;2023-03-01T14:06:14;11.30;54.40
12434;DHT22;6281;49.038;8.372;2023-03-01T14:08:44;11.00;53.60
12434;DHT22;6281;49.038;8.372;2023-03-01T14:11:52;11.30;53.40
12434;DHT22;6281;49.038;8.372;2023-03-01T14:14:42;11.30;55.50
12434;DHT22;6281;49.038;8.372;2023-03-01T14:20:12;11.30;55.00
12434;DHT22;6281;49.038;8.372;2023-03-01T14:22:41;11.50;53.70
12434;DHT22;6281;49.038;8.372;2023-03-01T14:25:21;11.90;53.90
12434;DHT22;6281;49.038;8.372;2023-03-01T14:27:58;12.20;53.80
12434;DHT22;6281;49.038;8.372;2023-03-01T14:30:32;11.70;53.10
12434;DHT22;6281;49.038;8.372;2023-03-01T14:33:02;11.60;51.90
12434;DHT22;6281;49.038;8.372;2023-03-01T14:35:31;12.00;55.80
12434;DHT22;6281;49.038;8.372;2023-03-01T14:37:59;11.80;52.70
12434;DHT22;6281;49.038;8.372;2023-03-01T14:40:28;11.20;52.80
12434;DHT22;6281;49.038;8.372;2023-03-01T14:42:57;11.70;55.00
12434;DHT22;6281;49.038;8.372;2023-03-01T14:45:30;11.40;54.00
12434;DHT22;6281;49.038;8.372;2023-03-01T14:48:00;11.30;52.60
12434;DHT22;6281;49.038;8.372;2023-03-01T14:50:29;11.30;54.90
12434;DHT22;6281;49.038;8.372;2023-03-01T14:52:58;11.50;53.10
12434;DHT22;6281;49.038;8.372;2023-03-01T14:55:29;11.50;54.70
12434;DHT22;6281;49.038;8.372;2023-03-01T14:57:58;11.40;53.50
12434;DHT22;6281;49.038;8.372;2023-03-01T15:00:27;11.60;52.80
12434;DHT22;6281;49.038;8.372;2023-03-01T15:02:58;11.60;53.30
12434;DHT22;6281;49.038;8.372;2023-03-01T15:05:30;11.40;55.00
12434;DHT22;6281;49.038;8.372;2023-03-01T15:07:59;11.50;53.90
12434;DHT22;6281;49.038;8.372;2023-03-01T15:10:28;11.00;54.20
12434;DHT22;6281;49.038;8.372;2023-03-01T15:12:56;11.40;55.10
12434;DHT22;6281;49.038;8.372;2023-03-01T15:15:38;11.50;54.80
12434;DHT22;6281;49.038;8.372;2023-03-01T15:18:16;11.10;54.40
12434;DHT22;6281;49.038;8.372;2023-03-01T15:20:44;11.20;54.60
12434;DHT22;6281;49.038;8.372;2023-03-01T15:23:20;11.30;54.40
12434;DHT22;6281;49.038;8.372;2023-03-01T15:25:48;11.10;54.40
12434;DHT22;6281;49.038;8.372;2023-03-01T15:28:23;10.40;55.80
12434;DHT22;6281;49.038;8.372;2023-03-01T15:31:00;10.80;55.70
12434;DHT22;6281;49.038;8.372;2023-03-01T15:33:34;10.30;55.60
12434;DHT22;6281;49.038;8.372;2023-03-01T15:36:04;10.80;58.20
12434;DHT22;6281;49.038;8.372;2023-03-01T15:38:52;10.90;55.80
12434;DHT22;6281;49.038;8.372;2023-03-01T15:41:25;10.90;56.70
12434;DHT22;6281;49.038;8.372;2023-03-01T15:43:53;10.60;56.00
12434;DHT22;6281;49.038;8.372;2023-03-01T15:46:24;10.30;57.30
12434;DHT22;6281;49.038;8.372;2023-03-01T15:48:54;10.30;57.00
12434;DHT22;6281;49.038;8.372;2023-03-01T15:51:28;10.40;56.10
12434;DHT22;6281;49.038;8.372;2023-03-01T15:53:59;10.30;58.20
12434;DHT22;6281;49.038;8.372;2023-03-01T15:56:26;10.30;57.20
12434;DHT22;6281;49.038;8.372;2023-03-01T15:58:57;10.20;57.30
12434;DHT22;6281;49.038;8.372;2023-03-01T16:01:24;10.10;56.50
12434;DHT22;6281;49.038;8.372;2023-03-01T16:03:52;10.20;58.80
12434;DHT22;6281;49.038;8.372;2023-03-01T16:06:20;9.70;59.20
12434;DHT22;6281;49.038;8.372;2023-03-01T16:08:47;9.50;60.30
12434;DHT22;6281;49.038;8.372;2023-03-01T16:11:16;9.40;63.30
12434;DHT22;6281;49.038;8.372;2023-03-01T16:13:44;9.70;63.00
12434;DHT22;6281;49.038;8.372;2023-03-01T16:16:12;9.50;65.30
12434;DHT22;6281;49.038;8.372;2023-03-01T16:18:41;9.70;66.40
12434;DHT22;6281;49.038;8.372;2023-03-01T16:21:17;9.30;64.20
12434;DHT22;6281;49.038;8.372;2023-03-01T16:23:45;9.50;65.60
12434;DHT22;6281;49.038;8.372;2023-03-01T16:26:12;9.30;67.10
12434;DHT22;6281;49.038;8.372;2023-03-01T16:28:40;9.10;65.30
12434;DHT22;6281;49.038;8.372;2023-03-01T16:31:07;9.00;67.70
12434;DHT22;6281;49.038;8.372;2023-03-01T16:33:34;8.90;67.30
12434;DHT22;6281;49.038;8.372;2023-03-01T16:36:06;8.60;68.90
12434;DHT22;6281;49.038;8.372;2023-03-01T16:38:34;8.70;71.30
12434;DHT22;6281;49.038;8.372;2023-03-01T16:41:01;8.30;76.10